createdAt,value
2018-10-03T00:00:10.003Z,1999.90
2018-10-03T00:02:37.858Z,1999.90
2018-10-03T00:05:05.742Z,1999.90
2018-10-03T00:07:33.667Z,1999.90
2018-10-03T00:10:01.542Z,1999.90
2018-10-03T00:12:29.443Z,1999.90
2018-10-03T00:14:57.306Z,1999.90
2018-10-03T00:17:25.169Z,1999.90
2018-10-03T00:19:53.050Z,1999.90
2018-10-03T00:22:20.913Z,1999.90
2018-10-03T00:24:48.799Z,1999.90
2018-10-03T00:27:16.671Z,1999.90
2018-10-03T00:29:44.554Z,1999.90
2018-10-03T00:32:12.406Z,1999.90
2018-10-03T00:34:40.284Z,1999.90
2018-10-03T00:37:08.146Z,1999.90
2018-10-03T00:39:36.015Z,1999.90
2018-10-03T00:42:03.871Z,1999.90
2018-10-03T00:44:31.726Z,1999.90
2018-10-03T00:46:59.598Z,1999.90
2018-10-03T00:49:27.460Z,1999.90
2018-10-03T00:51:55.322Z,1999.90
2018-10-03T00:54:23.189Z,1999.90
2018-10-03T00:56:51.046Z,1999.90
2018-10-03T00:59:18.907Z,1999.90
2018-10-03T01:01:46.774Z,1999.90
2018-10-03T01:04:14.653Z,1999.90
2018-10-03T01:06:42.506Z,1999.90
2018-10-03T01:09:10.372Z,1999.90
2018-10-03T01:11:38.217Z,1999.90
2018-10-03T01:14:08.266Z,1999.90
2018-10-03T01:16:36.104Z,1999.90
2018-10-03T01:19:04.002Z,1999.90
2018-10-03T01:21:31.855Z,1999.90
2018-10-03T01:23:59.762Z,1999.90
2018-10-03T01:26:27.618Z,1999.90
2018-10-03T01:28:55.478Z,1999.90
2018-10-03T01:31:23.345Z,1999.90
2018-10-03T01:33:51.213Z,1999.90
2018-10-03T01:36:19.109Z,1999.90
2018-10-03T01:38:46.971Z,1999.90
2018-10-03T01:41:14.842Z,1999.90
2018-10-03T01:43:42.714Z,1999.90
2018-10-03T01:46:10.590Z,1999.90
2018-10-03T01:48:38.465Z,1999.90
2018-10-03T01:51:06.333Z,1999.90
2018-10-03T01:53:34.222Z,1999.90
2018-10-03T01:56:03.869Z,1999.90
2018-10-03T01:58:31.738Z,1999.90
2018-10-03T02:00:59.631Z,1999.90
2018-10-03T02:03:27.502Z,1999.90
2018-10-03T02:05:55.454Z,1999.90
2018-10-03T02:08:23.309Z,1999.90
2018-10-03T02:10:51.178Z,1999.90
2018-10-03T02:13:19.038Z,1999.90
2018-10-03T02:15:46.904Z,1999.90
2018-10-03T02:18:14.778Z,1999.90
2018-10-03T02:20:42.647Z,1999.90
2018-10-03T02:23:10.487Z,1999.90
2018-10-03T02:25:38.351Z,1999.90
2018-10-03T02:28:06.213Z,1999.90
2018-10-03T02:30:34.083Z,1999.90
2018-10-03T02:33:01.957Z,1999.90
2018-10-03T02:35:30.621Z,1999.90
2018-10-03T02:37:58.498Z,1999.90
2018-10-03T02:40:26.348Z,1999.90
2018-10-03T02:42:54.215Z,1999.90
2018-10-03T02:45:22.078Z,1999.90
2018-10-03T02:47:51.195Z,1999.90
2018-10-03T02:50:19.062Z,1999.90
2018-10-03T02:52:46.916Z,1999.90
2018-10-03T02:55:14.787Z,1999.90
2018-10-03T02:57:42.649Z,1999.90
2018-10-03T03:00:10.558Z,1999.90
2018-10-03T03:02:38.443Z,1999.90
2018-10-03T03:05:06.294Z,1999.90
2018-10-03T03:07:34.209Z,1999.90
2018-10-03T03:10:02.067Z,1999.90
2018-10-03T03:12:29.930Z,1999.90
2018-10-03T03:14:57.785Z,1999.90
2018-10-03T03:17:25.650Z,1999.90
2018-10-03T03:19:53.511Z,1999.90
2018-10-03T03:22:21.367Z,1999.90
2018-10-03T03:24:49.241Z,1999.90
2018-10-03T03:27:17.116Z,1999.90
2018-10-03T03:29:44.978Z,1999.90
2018-10-03T03:32:12.842Z,1999.90
2018-10-03T03:34:41.279Z,1999.90
2018-10-03T03:37:09.194Z,1999.90
2018-10-03T03:39:37.067Z,1999.90
2018-10-03T03:42:04.927Z,1999.90
2018-10-03T03:44:32.798Z,1999.90
2018-10-03T03:47:00.656Z,1999.90
2018-10-03T03:49:28.516Z,1999.90
2018-10-03T03:51:56.382Z,1999.90
2018-10-03T03:54:24.250Z,1999.90
2018-10-03T03:56:52.136Z,1999.90
2018-10-03T03:59:19.976Z,1999.90
2018-10-03T04:01:47.839Z,1999.90
2018-10-03T04:04:15.696Z,1999.90
2018-10-03T04:06:43.550Z,1999.90
2018-10-03T04:09:11.406Z,1999.90
2018-10-03T04:11:39.280Z,1999.90
2018-10-03T04:14:07.133Z,1999.90
2018-10-03T04:16:34.989Z,1999.90
2018-10-03T04:19:02.848Z,1999.90
2018-10-03T04:21:36.094Z,1999.90
2018-10-03T04:24:04.130Z,1999.90
2018-10-03T04:26:32.054Z,1999.90
2018-10-03T04:28:59.989Z,1999.90
2018-10-03T04:31:27.875Z,1999.90
2018-10-03T04:33:55.767Z,1999.90
2018-10-03T04:36:24.003Z,1999.90
2018-10-03T04:38:51.896Z,1999.90
2018-10-03T04:41:19.734Z,1999.90
2018-10-03T04:43:47.606Z,1999.90
2018-10-03T04:46:15.453Z,1999.90
2018-10-03T04:48:43.367Z,1999.90
2018-10-03T04:51:11.226Z,1999.90
2018-10-03T04:53:39.089Z,1999.90
2018-10-03T04:56:06.950Z,1999.90
2018-10-03T04:58:34.819Z,1999.90
2018-10-03T05:01:02.695Z,1999.90
2018-10-03T05:03:30.554Z,1999.90
2018-10-03T05:05:58.400Z,1999.90
2018-10-03T05:08:26.271Z,1999.90
2018-10-03T05:10:54.152Z,1999.90
2018-10-03T05:13:22.065Z,1999.90
2018-10-03T05:15:50.247Z,1999.90
2018-10-03T05:18:18.106Z,1999.90
2018-10-03T05:20:45.966Z,1999.90
2018-10-03T05:23:13.835Z,1999.90
2018-10-03T05:25:41.698Z,1999.90
2018-10-03T05:28:09.594Z,1999.90
2018-10-03T05:30:37.551Z,1999.90
2018-10-03T05:33:05.663Z,1999.90
2018-10-03T05:35:33.912Z,1999.90
2018-10-03T05:38:01.758Z,1999.90
2018-10-03T05:40:29.630Z,1999.90
2018-10-03T05:42:57.490Z,1999.90
2018-10-03T05:45:25.330Z,1999.90
2018-10-03T05:47:53.206Z,1999.90
2018-10-03T05:50:21.062Z,1999.90
2018-10-03T05:52:48.926Z,1999.90
2018-10-03T05:55:16.784Z,1999.90
2018-10-03T05:57:44.664Z,1999.90
2018-10-03T06:00:12.522Z,1999.90
2018-10-03T06:02:40.405Z,1999.90
2018-10-03T06:05:08.280Z,1999.90
2018-10-03T06:07:36.155Z,1999.90
2018-10-03T06:10:04.114Z,1999.90
2018-10-03T06:12:31.966Z,1999.90
2018-10-03T06:14:59.821Z,1999.90
2018-10-03T06:17:27.682Z,1999.90
2018-10-03T06:19:55.673Z,1999.90
2018-10-03T06:22:23.558Z,1999.90
2018-10-03T06:24:51.436Z,1999.90
2018-10-03T06:27:19.291Z,1999.90
2018-10-03T06:29:47.171Z,1999.90
2018-10-03T06:32:15.238Z,1999.90
2018-10-03T06:34:43.139Z,1999.90
2018-10-03T06:37:11.298Z,1999.90
2018-10-03T06:39:39.162Z,1999.90
2018-10-03T06:42:07.015Z,1999.90
2018-10-03T06:44:34.883Z,1999.90
2018-10-03T06:47:02.739Z,1999.90
2018-10-03T06:49:30.603Z,1999.90
2018-10-03T06:51:58.546Z,1999.90
2018-10-03T06:54:26.419Z,1999.90
2018-10-03T06:56:54.302Z,1999.90
2018-10-03T06:59:22.187Z,1999.90
2018-10-03T07:01:50.069Z,1999.90
2018-10-03T07:04:17.926Z,1999.90
2018-10-03T07:06:45.775Z,1999.90
2018-10-03T07:09:13.668Z,1999.90
2018-10-03T07:11:41.537Z,1999.90
2018-10-03T07:14:09.410Z,1999.90
2018-10-03T07:16:37.370Z,1999.90
2018-10-03T07:19:05.259Z,1999.90
2018-10-03T07:21:33.114Z,1999.90
2018-10-03T07:24:00.989Z,1999.90
2018-10-03T07:26:28.854Z,1999.90
2018-10-03T07:28:56.723Z,1987.07
2018-10-03T07:31:42.655Z,1999.90
2018-10-03T07:34:10.579Z,1999.90
2018-10-03T07:36:38.447Z,1999.90
2018-10-03T07:39:06.956Z,1999.90
2018-10-03T07:41:34.923Z,1999.90
2018-10-03T07:44:03.087Z,1999.90
2018-10-03T07:46:30.880Z,1999.90
2018-10-03T07:48:58.747Z,1999.90
2018-10-03T07:51:26.652Z,1999.90
2018-10-03T07:53:54.633Z,1999.90
2018-10-03T07:56:22.494Z,1999.90
2018-10-03T07:58:50.368Z,1999.90
2018-10-03T08:01:18.225Z,1999.90
2018-10-03T08:03:46.186Z,1999.90
2018-10-03T08:06:14.042Z,1999.90
2018-10-03T08:08:41.898Z,1999.90
2018-10-03T08:11:09.778Z,1999.90
2018-10-03T08:13:37.635Z,1999.90
2018-10-03T08:16:05.494Z,1999.90
2018-10-03T08:18:33.342Z,1999.90
2018-10-03T08:21:01.450Z,1999.90
2018-10-03T08:23:29.333Z,1999.90
2018-10-03T08:25:57.239Z,1999.90
2018-10-03T08:28:25.100Z,1999.90
2018-10-03T08:30:52.955Z,1999.90
2018-10-03T08:33:20.847Z,1999.90
2018-10-03T08:35:48.681Z,1999.90
2018-10-03T08:38:16.531Z,1999.90
2018-10-03T08:40:44.406Z,1999.90
2018-10-03T08:43:12.291Z,1999.90
2018-10-03T08:45:40.230Z,1999.90
2018-10-03T08:48:08.027Z,1999.90
2018-10-03T08:50:36.106Z,1999.90
2018-10-03T08:53:04.155Z,1999.90
2018-10-03T08:55:32.091Z,1999.90
2018-10-03T08:58:00.014Z,1999.90
2018-10-03T09:00:27.896Z,1999.90
2018-10-03T09:02:55.749Z,1999.90
2018-10-03T09:05:26.399Z,1999.90
2018-10-03T09:08:02.710Z,1999.90
2018-10-03T09:10:35.613Z,1999.90
2018-10-03T09:13:11.503Z,1999.90
2018-10-03T09:15:39.447Z,1999.90
2018-10-03T09:18:07.546Z,1999.90
2018-10-03T09:20:35.634Z,1999.90
2018-10-03T09:23:03.533Z,1999.90
2018-10-03T09:25:31.400Z,1999.90
2018-10-03T09:27:59.263Z,1999.90
2018-10-03T09:30:27.303Z,1999.90
2018-10-03T09:32:55.190Z,1932.73
2018-10-03T09:35:23.179Z,1999.90
2018-10-03T09:37:51.038Z,1999.90
2018-10-03T09:40:19.073Z,1999.90
2018-10-03T09:42:46.931Z,1999.90
2018-10-03T09:45:14.850Z,1999.90
2018-10-03T09:47:42.707Z,1999.90
2018-10-03T09:50:10.768Z,1999.90
2018-10-03T09:52:39.565Z,1999.90
2018-10-03T09:55:12.247Z,1999.90
2018-10-03T09:57:40.295Z,1999.90
2018-10-03T10:00:08.173Z,1999.90
2018-10-03T10:02:36.491Z,1999.90
2018-10-03T10:05:04.438Z,1999.90
2018-10-03T10:07:32.451Z,1999.90
2018-10-03T10:10:00.393Z,1999.90
2018-10-03T10:12:28.266Z,1999.90
2018-10-03T10:14:56.165Z,1999.90
2018-10-03T10:17:24.079Z,1999.90
2018-10-03T10:19:52.075Z,1999.90
2018-10-03T10:22:20.012Z,1999.90
2018-10-03T10:24:47.869Z,1999.90
2018-10-03T10:27:15.734Z,1999.90
2018-10-03T10:29:43.692Z,1999.90
2018-10-03T10:32:11.957Z,1999.90
2018-10-03T10:34:39.926Z,1999.90
2018-10-03T10:37:07.891Z,1999.90
2018-10-03T10:39:35.735Z,1999.90
2018-10-03T10:42:03.654Z,1999.90
2018-10-03T10:44:31.599Z,1999.90
2018-10-03T10:46:59.482Z,1999.90
2018-10-03T10:49:27.358Z,1999.90
2018-10-03T10:51:55.388Z,1999.90
2018-10-03T10:54:23.238Z,1999.90
2018-10-03T10:56:51.165Z,1999.90
2018-10-03T10:59:19.026Z,1999.90
2018-10-03T11:01:46.965Z,1999.90
2018-10-03T11:04:15.040Z,1999.90
2018-10-03T11:06:43.098Z,1999.90
2018-10-03T11:09:12.014Z,1999.90
2018-10-03T11:11:39.883Z,1999.90
2018-10-03T11:14:07.761Z,1999.90
2018-10-03T11:16:35.662Z,1999.90
2018-10-03T11:19:03.672Z,1999.90
2018-10-03T11:21:31.562Z,1999.90
2018-10-03T11:23:59.611Z,1999.90
2018-10-03T11:26:27.359Z,1999.90
2018-10-03T11:28:55.302Z,1999.90
2018-10-03T11:31:23.162Z,1999.90
2018-10-03T11:33:51.027Z,1999.90
2018-10-03T11:36:18.869Z,1999.90
2018-10-03T11:38:46.906Z,1999.90
2018-10-03T11:41:14.817Z,1999.90
2018-10-03T11:43:42.889Z,1999.90
2018-10-03T11:46:10.783Z,1999.90
2018-10-03T11:48:38.660Z,1999.90
2018-10-03T11:51:06.602Z,1999.90
2018-10-03T11:53:34.621Z,1999.90
2018-10-03T11:56:02.547Z,1999.90
2018-10-03T11:58:30.419Z,1999.90
2018-10-03T12:00:58.288Z,1999.90
2018-10-03T12:03:26.252Z,1999.90
2018-10-03T12:05:54.099Z,1999.90
2018-10-03T12:08:22.054Z,1999.90
2018-10-03T12:10:49.937Z,1999.90
2018-10-03T12:13:17.808Z,1999.90
2018-10-03T12:15:45.685Z,1999.90
2018-10-03T12:18:13.556Z,1999.90
2018-10-03T12:20:41.426Z,1999.90
2018-10-03T12:23:09.303Z,1999.90
2018-10-03T12:25:37.279Z,1999.90
2018-10-03T12:28:05.235Z,1999.90
2018-10-03T12:30:33.187Z,1999.90
2018-10-03T12:33:01.109Z,1999.90
2018-10-03T12:35:33.458Z,1999.90
2018-10-03T12:38:01.724Z,1999.90
2018-10-03T12:40:29.987Z,1999.90
2018-10-03T12:42:57.858Z,1999.90
2018-10-03T12:45:26.537Z,1999.90
2018-10-03T12:47:54.454Z,1999.90
2018-10-03T12:50:22.351Z,1999.90
2018-10-03T12:52:50.315Z,1999.90
2018-10-03T12:55:18.189Z,1999.90
2018-10-03T12:57:46.491Z,1999.90
2018-10-03T13:00:14.387Z,1999.90
2018-10-03T13:02:42.302Z,1999.90
2018-10-03T13:05:10.161Z,1999.90
2018-10-03T13:07:38.028Z,1999.90
2018-10-03T13:10:05.911Z,1999.30
2018-10-03T13:12:33.783Z,1999.90
2018-10-03T13:15:01.635Z,1999.90
2018-10-03T13:17:29.485Z,1999.90
2018-10-03T13:19:57.363Z,1999.90
2018-10-03T13:22:25.206Z,1999.90
2018-10-03T13:24:53.072Z,1999.90
2018-10-03T13:27:20.929Z,1977.23
2018-10-03T13:29:48.801Z,1820.50
2018-10-03T13:32:16.682Z,1999.90
2018-10-03T13:34:44.542Z,1999.90
2018-10-03T13:37:12.830Z,1999.90
2018-10-03T13:39:40.690Z,1999.90
2018-10-03T13:42:08.539Z,1999.90
2018-10-03T13:44:36.402Z,1323.70
2018-10-03T13:47:04.258Z,1999.90
2018-10-03T13:49:32.121Z,1999.90
2018-10-03T13:51:59.967Z,1999.90
2018-10-03T13:54:27.901Z,1999.90
2018-10-03T13:56:55.878Z,1999.90
2018-10-03T13:59:23.819Z,1999.90
2018-10-03T14:01:51.844Z,1999.90
2018-10-03T14:04:19.726Z,1999.90
2018-10-03T14:06:47.663Z,1999.90
2018-10-03T14:09:15.630Z,1999.90
2018-10-03T14:11:43.539Z,1999.90
2018-10-03T14:14:11.493Z,1999.90
2018-10-03T14:16:39.406Z,1621.57
2018-10-03T14:19:07.365Z,1884.87
2018-10-03T14:21:35.317Z,1880.23
2018-10-03T14:24:03.188Z,284.87
2018-10-03T14:26:31.151Z,1200.00
2018-10-03T14:28:59.085Z,485.70
2018-10-03T14:31:26.997Z,952.13
2018-10-03T14:33:54.979Z,295.97
2018-10-03T14:36:22.878Z,694.07
2018-10-03T14:38:50.778Z,712.93
2018-10-03T14:41:18.640Z,153.07
2018-10-03T14:43:46.622Z,468.30
2018-10-03T14:46:14.504Z,555.57
2018-10-03T14:48:42.346Z,390.20
2018-10-03T14:51:10.186Z,375.57
2018-10-03T14:53:38.066Z,1120.43
2018-10-03T14:56:05.970Z,372.60
2018-10-03T14:58:33.916Z,325.37
2018-10-03T15:01:01.800Z,414.67
2018-10-03T15:03:29.938Z,466.63
2018-10-03T15:05:58.004Z,336.77
2018-10-03T15:08:26.305Z,77.10
2018-10-03T15:10:54.230Z,172.17
2018-10-03T15:13:22.150Z,105.10
2018-10-03T15:15:51.455Z,128.63
2018-10-03T15:18:19.376Z,167.10
2018-10-03T15:20:47.179Z,103.67
2018-10-03T15:23:15.074Z,71.90
2018-10-03T15:25:42.951Z,73.63
2018-10-03T15:28:10.870Z,94.97
2018-10-03T15:30:38.735Z,69.20
2018-10-03T15:33:06.579Z,72.50
2018-10-03T15:35:34.529Z,84.93
2018-10-03T15:38:02.312Z,110.60
2018-10-03T15:40:30.234Z,72.77
2018-10-03T15:42:59.146Z,80.07
2018-10-03T15:45:27.011Z,76.50
2018-10-03T15:47:54.882Z,107.63
2018-10-03T15:50:22.747Z,370.03
2018-10-03T15:52:50.926Z,139.27
2018-10-03T15:55:18.822Z,283.00
2018-10-03T15:57:46.766Z,322.97
2018-10-03T16:00:14.692Z,143.27
2018-10-03T16:05:16.829Z,422.10
2018-10-03T16:07:44.757Z,237.97
2018-10-03T16:10:12.618Z,213.73
2018-10-03T16:12:40.476Z,375.70
2018-10-03T16:15:08.346Z,367.13
2018-10-03T16:17:36.319Z,1065.30
2018-10-03T16:20:04.419Z,570.33
2018-10-03T16:22:32.298Z,1191.10
2018-10-03T16:25:00.164Z,1407.83
2018-10-03T16:27:28.067Z,1150.87
2018-10-03T16:29:55.918Z,1378.00
2018-10-03T16:32:23.927Z,1007.33
2018-10-03T16:34:51.689Z,1863.03
2018-10-03T16:37:19.609Z,1172.10
2018-10-03T16:39:47.488Z,1345.13
2018-10-03T16:42:15.561Z,1379.63
2018-10-03T16:44:43.604Z,1169.07
2018-10-03T16:47:11.478Z,1251.60
2018-10-03T16:49:39.504Z,961.17
2018-10-03T16:52:07.386Z,676.80
2018-10-03T16:54:35.246Z,855.03
2018-10-03T16:57:03.186Z,1463.27
2018-10-03T16:59:31.878Z,840.07
2018-10-03T17:01:59.746Z,741.10
2018-10-03T17:04:27.642Z,1261.93
2018-10-03T17:06:55.518Z,1427.77
2018-10-03T17:09:24.011Z,865.10
2018-10-03T17:11:51.995Z,1208.87
2018-10-03T17:14:21.151Z,871.87
2018-10-03T17:16:49.223Z,1246.97
2018-10-03T17:19:17.497Z,935.20
2018-10-03T17:21:45.361Z,1398.90
2018-10-03T17:24:13.366Z,1999.90
2018-10-03T17:26:41.354Z,1999.90
2018-10-03T17:29:09.222Z,1945.80
2018-10-03T17:31:37.099Z,1999.90
2018-10-03T17:34:05.011Z,1354.60
2018-10-03T17:36:33.059Z,1877.00
2018-10-03T17:39:01.066Z,1303.13
2018-10-03T17:41:28.990Z,1999.90
2018-10-03T17:43:56.992Z,1985.87
2018-10-03T17:46:25.002Z,1576.47
2018-10-03T17:48:52.953Z,1926.80
2018-10-03T17:51:20.903Z,1998.23
2018-10-03T17:53:48.899Z,1944.67
2018-10-03T17:56:16.878Z,1999.90
2018-10-03T17:58:44.790Z,1999.90
2018-10-03T18:01:12.837Z,1999.90
2018-10-03T18:03:40.723Z,1720.87
2018-10-03T18:06:08.585Z,1897.63
2018-10-03T18:08:37.506Z,1261.07
2018-10-03T18:11:05.409Z,1198.37
2018-10-03T18:13:33.373Z,1280.97
2018-10-03T18:16:01.212Z,1156.47
2018-10-03T18:18:29.205Z,1841.77
2018-10-03T18:20:57.122Z,1430.60
2018-10-03T18:23:25.099Z,1834.33
2018-10-03T18:25:53.088Z,1715.13
2018-10-03T18:28:21.073Z,1445.83
2018-10-03T18:30:48.944Z,748.57
2018-10-03T18:33:16.876Z,1413.60
2018-10-03T18:35:44.746Z,816.23
2018-10-03T18:38:12.666Z,556.73
2018-10-03T18:40:40.578Z,439.37
2018-10-03T18:43:08.442Z,821.17
2018-10-03T18:45:36.685Z,720.17
2018-10-03T18:48:04.568Z,673.10
2018-10-03T18:50:32.441Z,934.53
2018-10-03T18:53:00.385Z,757.10
2018-10-03T18:55:28.251Z,273.40
2018-10-03T18:57:56.134Z,318.27
2018-10-03T19:00:24.125Z,327.73
2018-10-03T19:02:52.142Z,293.73
2018-10-03T19:05:20.340Z,267.97
2018-10-03T19:07:48.315Z,348.53
2018-10-03T19:10:16.280Z,403.50
2018-10-03T19:12:44.202Z,428.27
2018-10-03T19:15:12.116Z,958.70
2018-10-03T19:17:39.973Z,1022.50
2018-10-03T19:20:07.867Z,488.67
2018-10-03T19:22:35.863Z,1248.57
2018-10-03T19:25:04.660Z,1135.57
2018-10-03T19:27:32.547Z,674.27
2018-10-03T19:30:00.437Z,1526.13
2018-10-03T19:32:28.294Z,661.13
2018-10-03T19:34:56.262Z,1304.87
2018-10-03T19:37:24.178Z,1487.90
2018-10-03T19:39:52.091Z,1935.33
2018-10-03T19:42:20.058Z,1683.80
2018-10-03T19:44:47.819Z,940.63
2018-10-03T19:47:15.684Z,1913.50
2018-10-03T19:49:43.583Z,1979.27
2018-10-03T19:52:11.478Z,1954.00
2018-10-03T19:54:39.337Z,1595.90
2018-10-03T19:57:07.377Z,1972.13
2018-10-03T19:59:35.195Z,1951.43
2018-10-03T20:02:03.117Z,1959.50
2018-10-03T20:04:30.998Z,1969.83
2018-10-03T20:06:58.953Z,1999.90
2018-10-03T20:09:26.917Z,1999.90
2018-10-03T20:11:54.890Z,1999.90
2018-10-03T20:14:22.782Z,1486.27
2018-10-03T20:16:50.630Z,1999.90
2018-10-03T20:19:18.602Z,1999.90
2018-10-03T20:21:46.498Z,1999.90
2018-10-03T20:24:14.419Z,1852.20
2018-10-03T20:26:42.430Z,1999.90
2018-10-03T20:29:10.156Z,1689.67
2018-10-03T20:31:38.015Z,1616.90
2018-10-03T20:34:06.029Z,1480.03
2018-10-03T20:36:33.969Z,1788.33
2018-10-03T20:39:01.822Z,1999.90
2018-10-03T20:41:29.683Z,1595.13
2018-10-03T20:43:57.604Z,1627.60
2018-10-03T20:46:25.441Z,1830.87
2018-10-03T20:48:53.402Z,1860.70
2018-10-03T20:51:21.238Z,1755.97
2018-10-03T20:53:49.102Z,1954.67
2018-10-03T20:56:16.958Z,1823.20
2018-10-03T20:58:44.819Z,1975.47
2018-10-03T21:01:12.666Z,1980.57
2018-10-03T21:03:40.582Z,1999.90
2018-10-03T21:06:08.430Z,1625.03
2018-10-03T21:08:36.341Z,1929.57
2018-10-03T21:11:04.255Z,1474.33
2018-10-03T21:13:32.131Z,1432.47
2018-10-03T21:15:59.983Z,1475.73
2018-10-03T21:18:27.840Z,1999.90
2018-10-03T21:20:55.711Z,1604.80
2018-10-03T21:23:23.566Z,1766.57
2018-10-03T21:25:51.502Z,1757.20
2018-10-03T21:28:19.390Z,1889.53
2018-10-03T21:30:47.272Z,1948.70
2018-10-03T21:33:15.158Z,1950.77
2018-10-03T21:35:43.027Z,1887.97
2018-10-03T21:38:10.883Z,1949.83
2018-10-03T21:40:38.811Z,1999.90
2018-10-03T21:43:06.670Z,1958.67
2018-10-03T21:45:34.538Z,1951.13
2018-10-03T21:48:02.430Z,1999.90
2018-10-03T21:50:30.289Z,1999.90
2018-10-03T21:52:58.125Z,1999.90
2018-10-03T21:55:25.999Z,1975.80
2018-10-03T21:57:53.874Z,1810.43
2018-10-03T22:00:26.079Z,1999.90
2018-10-03T22:02:53.935Z,1999.90
2018-10-03T22:05:21.798Z,1999.90
2018-10-03T22:07:49.656Z,1999.90
2018-10-03T22:10:17.633Z,1999.90
2018-10-03T22:12:45.491Z,1999.90
2018-10-03T22:15:13.343Z,1999.90
2018-10-03T22:17:41.378Z,1999.90
2018-10-03T22:20:09.458Z,1999.90
2018-10-03T22:22:37.332Z,1999.90
2018-10-03T22:25:05.195Z,1936.37
2018-10-03T22:27:33.059Z,1999.90
2018-10-03T22:30:00.964Z,1999.90
2018-10-03T22:32:28.837Z,1999.90
2018-10-03T22:34:56.693Z,1999.90
2018-10-03T22:37:24.551Z,1999.90
2018-10-03T22:39:52.402Z,1999.90
2018-10-03T22:42:20.254Z,1999.90
2018-10-03T22:44:48.121Z,1999.90
2018-10-03T22:47:15.978Z,1999.90
2018-10-03T22:49:43.875Z,1999.90
2018-10-03T22:52:11.730Z,1993.40
2018-10-03T22:54:39.592Z,1999.90
2018-10-03T22:57:07.459Z,1999.90
2018-10-03T22:59:35.351Z,1999.90
2018-10-03T23:02:03.218Z,1999.90
2018-10-03T23:04:31.122Z,1999.90
2018-10-03T23:06:58.998Z,1999.90
2018-10-03T23:09:26.904Z,1999.90
2018-10-03T23:11:54.771Z,1999.90
2018-10-03T23:14:22.667Z,1999.90
2018-10-03T23:16:50.522Z,1999.90
2018-10-03T23:19:18.382Z,1999.90
2018-10-03T23:21:46.238Z,1999.90
2018-10-03T23:24:14.105Z,1999.90
2018-10-03T23:26:42.054Z,1999.90
2018-10-03T23:29:09.953Z,1999.90
2018-10-03T23:31:37.826Z,1999.90
2018-10-03T23:34:05.675Z,1999.90
2018-10-03T23:36:33.529Z,1999.90
2018-10-03T23:39:01.432Z,1999.90
2018-10-03T23:41:29.318Z,1999.90
2018-10-03T23:43:57.174Z,1999.90
2018-10-03T23:46:25.039Z,1999.90
2018-10-03T23:48:52.918Z,1999.90
2018-10-03T23:51:20.798Z,1999.90
2018-10-03T23:53:48.641Z,1999.90
2018-10-03T23:56:16.503Z,1999.90
2018-10-03T23:58:44.397Z,1999.90
